createdAt,value
2023-04-29T00:01:44.024Z,63.64
2023-04-29T00:04:11.717Z,64.44
2023-04-29T00:06:38.993Z,62.31
2023-04-29T00:09:08.539Z,65.56
2023-04-29T00:11:35.959Z,64.08
2023-04-29T00:14:03.326Z,63.45
2023-04-29T00:16:30.463Z,62.14
2023-04-29T00:18:57.910Z,61.97
2023-04-29T00:21:27.416Z,63.77
2023-04-29T00:23:54.561Z,62.57
2023-04-29T00:26:21.974Z,62.50
2023-04-29T00:28:49.270Z,62.47
2023-04-29T00:31:16.527Z,63.54
2023-04-29T00:33:44.038Z,65.66
2023-04-29T00:36:11.252Z,65.19
2023-04-29T00:38:38.456Z,64.22
2023-04-29T00:41:05.931Z,63.82
2023-04-29T00:43:33.039Z,63.76
2023-04-29T00:46:00.252Z,64.55
2023-04-29T00:48:27.666Z,63.01
2023-04-29T00:50:54.834Z,63.45
2023-04-29T00:53:23.253Z,61.79
2023-04-29T00:55:51.739Z,61.75
2023-04-29T00:58:19.607Z,63.04
2023-04-29T01:00:47.109Z,62.59
2023-04-29T01:03:15.118Z,61.75
2023-04-29T01:05:42.653Z,61.04
2023-04-29T01:08:17.882Z,61.55
2023-04-29T01:10:49.837Z,62.02
2023-04-29T01:13:18.058Z,61.31
2023-04-29T01:16:03.822Z,62.56
2023-04-29T01:18:39.349Z,62.93
2023-04-29T01:21:06.930Z,63.09
2023-04-29T01:23:34.131Z,63.50
2023-04-29T01:26:01.412Z,64.00
2023-04-29T01:28:38.739Z,63.42
2023-04-29T01:31:09.657Z,62.30
2023-04-29T01:33:51.494Z,62.38
2023-04-29T01:36:37.376Z,62.62
2023-04-29T01:39:20.355Z,63.41
2023-04-29T01:41:52.219Z,63.19
2023-04-29T01:44:20.948Z,63.21
2023-04-29T01:46:52.465Z,64.70
2023-04-29T01:49:29.663Z,65.50
2023-04-29T01:51:56.997Z,65.52
2023-04-29T01:54:24.935Z,64.70
2023-04-29T01:56:52.294Z,65.00
2023-04-29T01:59:20.960Z,64.80
2023-04-29T02:01:51.621Z,65.42
2023-04-29T02:04:20.156Z,63.61
2023-04-29T02:06:47.350Z,64.17
2023-04-29T02:09:17.477Z,63.95
2023-04-29T02:11:48.663Z,64.00
2023-04-29T02:14:15.849Z,63.04
2023-04-29T02:16:46.468Z,63.63
2023-04-29T02:19:14.052Z,63.01
2023-04-29T02:21:41.349Z,63.43
2023-04-29T02:24:08.530Z,64.07
2023-04-29T02:26:38.203Z,63.99
2023-04-29T02:29:05.403Z,63.87
2023-04-29T02:31:32.805Z,63.97
2023-04-29T02:34:00.718Z,63.99
2023-04-29T02:36:28.519Z,64.04
2023-04-29T02:38:56.378Z,63.42
2023-04-29T02:41:25.732Z,63.35
2023-04-29T02:43:53.059Z,64.23
2023-04-29T02:46:20.482Z,64.49
2023-04-29T02:48:48.010Z,64.67
2023-04-29T02:51:15.441Z,65.12
2023-04-29T02:54:01.338Z,64.26
2023-04-29T02:56:29.709Z,63.52
2023-04-29T02:58:57.048Z,62.37
2023-04-29T03:01:24.414Z,63.40
2023-04-29T03:03:52.817Z,61.37
2023-04-29T03:06:20.450Z,61.00
2023-04-29T03:08:47.623Z,59.33
2023-04-29T03:11:15.129Z,59.91
2023-04-29T03:13:42.362Z,59.36
2023-04-29T03:16:09.925Z,59.88
2023-04-29T03:18:37.570Z,58.14
2023-04-29T03:21:05.330Z,57.81
2023-04-29T03:23:32.617Z,57.56
2023-04-29T03:26:01.418Z,57.66
2023-04-29T03:28:28.710Z,57.87
2023-04-29T03:30:56.977Z,57.78
2023-04-29T03:33:24.483Z,57.51
2023-04-29T03:35:51.872Z,56.40
2023-04-29T03:38:20.761Z,56.94
2023-04-29T03:40:48.348Z,56.78
2023-04-29T03:43:16.137Z,56.35
2023-04-29T03:45:43.492Z,56.64
2023-04-29T03:48:12.473Z,55.95
2023-04-29T03:50:40.211Z,55.37
2023-04-29T03:53:08.296Z,55.66
2023-04-29T03:55:35.874Z,55.34
2023-04-29T03:58:03.170Z,55.74
2023-04-29T04:00:31.367Z,56.07
2023-04-29T04:02:59.339Z,56.50
2023-04-29T04:05:27.005Z,55.56
2023-04-29T04:07:54.646Z,56.15
2023-04-29T04:10:24.347Z,56.72
2023-04-29T04:12:51.851Z,55.64
2023-04-29T04:15:19.097Z,56.78
2023-04-29T04:17:46.822Z,55.91
2023-04-29T04:20:14.091Z,55.27
2023-04-29T04:22:42.319Z,56.12
2023-04-29T04:25:10.370Z,56.27
2023-04-29T04:27:37.534Z,56.41
2023-04-29T04:30:05.714Z,55.86
2023-04-29T04:32:33.610Z,56.08
2023-04-29T04:35:00.831Z,56.02
2023-04-29T04:37:28.409Z,55.83
2023-04-29T04:39:56.363Z,55.52
2023-04-29T04:42:23.710Z,55.56
2023-04-29T04:44:51.550Z,55.83
2023-04-29T04:47:19.409Z,56.07
2023-04-29T04:49:46.984Z,55.55
2023-04-29T04:52:14.231Z,56.33
2023-04-29T04:54:45.054Z,56.56
2023-04-29T04:57:12.740Z,56.91
2023-04-29T04:59:39.944Z,57.61
2023-04-29T05:02:08.709Z,57.97
2023-04-29T05:04:35.877Z,58.64
2023-04-29T05:07:03.101Z,58.36
2023-04-29T05:09:31.366Z,59.46
2023-04-29T05:11:59.309Z,59.79
2023-04-29T05:14:27.934Z,60.21
2023-04-29T05:16:58.700Z,59.68
2023-04-29T05:19:26.962Z,59.38
2023-04-29T05:21:54.495Z,58.64
2023-04-29T05:24:22.036Z,59.07
2023-04-29T05:26:51.946Z,58.72
2023-04-29T05:29:19.745Z,58.26
2023-04-29T05:31:47.628Z,58.61
2023-04-29T05:34:15.171Z,57.52
2023-04-29T05:36:42.495Z,57.70
2023-04-29T05:39:10.045Z,57.44
2023-04-29T05:41:37.508Z,57.72
2023-04-29T05:44:06.363Z,56.64
2023-04-29T05:46:33.813Z,57.13
2023-04-29T05:49:00.950Z,56.06
2023-04-29T05:51:28.427Z,55.69
2023-04-29T05:53:55.951Z,55.70
2023-04-29T05:56:23.474Z,57.16
2023-04-29T05:58:50.715Z,56.72
2023-04-29T06:01:18.366Z,56.43
2023-04-29T06:03:46.150Z,55.31
2023-04-29T06:06:14.519Z,54.64
2023-04-29T06:08:41.781Z,54.01
2023-04-29T06:11:11.150Z,53.94
2023-04-29T06:13:38.356Z,54.18
2023-04-29T06:16:05.974Z,54.96
2023-04-29T06:18:33.691Z,53.60
2023-04-29T06:21:00.853Z,52.73
2023-04-29T06:23:28.096Z,53.02
2023-04-29T06:25:56.015Z,52.85
2023-04-29T06:28:24.188Z,51.85
2023-04-29T06:30:51.530Z,52.87
2023-04-29T06:33:19.348Z,51.51
2023-04-29T06:35:46.583Z,52.40
2023-04-29T06:38:13.880Z,51.86
2023-04-29T06:40:41.633Z,53.10
2023-04-29T06:43:09.045Z,52.36
2023-04-29T06:45:36.897Z,52.64
2023-04-29T06:48:04.691Z,52.61
2023-04-29T06:50:32.351Z,53.16
2023-04-29T06:52:59.536Z,52.92
2023-04-29T06:55:27.019Z,52.80
2023-04-29T06:57:54.278Z,53.66
2023-04-29T07:00:22.854Z,52.77
2023-04-29T07:02:50.324Z,52.40
2023-04-29T07:05:17.539Z,51.91
2023-04-29T07:07:44.759Z,51.80
2023-04-29T07:10:12.274Z,52.29
2023-04-29T07:12:39.731Z,52.21
2023-04-29T07:15:07.370Z,51.62
2023-04-29T07:17:34.901Z,53.36
2023-04-29T07:20:02.255Z,52.11
2023-04-29T07:22:29.525Z,52.67
2023-04-29T07:24:57.429Z,52.02
2023-04-29T07:27:25.095Z,52.12
2023-04-29T07:29:52.545Z,52.29
2023-04-29T07:32:20.336Z,50.19
2023-04-29T07:34:47.750Z,50.15
2023-04-29T07:37:15.759Z,50.96
2023-04-29T07:39:43.241Z,49.85
2023-04-29T07:42:10.973Z,50.74
2023-04-29T07:44:38.630Z,50.08
2023-04-29T07:47:06.220Z,46.96
2023-04-29T07:49:33.439Z,47.18
2023-04-29T07:52:00.641Z,45.33
2023-04-29T07:54:28.088Z,43.54
2023-04-29T07:56:57.608Z,41.22
2023-04-29T07:59:24.819Z,39.47
2023-04-29T08:01:52.918Z,38.79
2023-04-29T08:04:20.653Z,40.61
2023-04-29T08:06:48.958Z,38.50
2023-04-29T08:09:16.553Z,39.03
2023-04-29T08:11:44.911Z,38.07
2023-04-29T08:14:13.906Z,39.04
2023-04-29T08:16:41.296Z,40.71
2023-04-29T08:19:08.800Z,40.03
2023-04-29T08:21:36.009Z,40.90
2023-04-29T08:24:03.221Z,40.19
2023-04-29T08:26:30.677Z,40.90
2023-04-29T08:28:58.225Z,42.80
2023-04-29T08:31:26.053Z,39.90
2023-04-29T08:33:53.996Z,41.13
2023-04-29T08:36:21.336Z,40.39
2023-04-29T08:38:49.015Z,41.12
2023-04-29T08:41:16.956Z,41.61
2023-04-29T08:43:44.211Z,41.05
2023-04-29T08:46:11.458Z,44.21
2023-04-29T08:48:44.754Z,41.12
2023-04-29T08:51:13.587Z,39.33
2023-04-29T08:53:41.082Z,39.50
2023-04-29T08:56:20.600Z,38.17
2023-04-29T08:58:54.549Z,40.59
2023-04-29T09:01:24.204Z,42.54
2023-04-29T09:03:52.871Z,39.80
2023-04-29T09:06:21.592Z,40.06
2023-04-29T09:08:48.791Z,42.95
2023-04-29T09:11:16.211Z,43.11
2023-04-29T09:13:43.341Z,43.54
2023-04-29T09:16:11.876Z,45.84
2023-04-29T09:18:43.873Z,43.12
2023-04-29T09:21:18.078Z,41.60
2023-04-29T09:23:47.019Z,43.28
2023-04-29T09:26:14.505Z,41.33
2023-04-29T09:28:43.801Z,40.14
2023-04-29T09:31:12.075Z,40.85
2023-04-29T09:33:55.133Z,38.63
2023-04-29T09:36:42.211Z,37.42
2023-04-29T09:39:12.918Z,39.13
2023-04-29T09:41:40.469Z,38.63
2023-04-29T09:44:08.127Z,39.42
2023-04-29T09:46:36.813Z,38.36
2023-04-29T09:49:07.247Z,37.70
2023-04-29T09:51:34.581Z,37.44
2023-04-29T09:54:03.131Z,36.25
2023-04-29T09:56:34.695Z,36.40
2023-04-29T09:59:10.910Z,35.66
2023-04-29T10:01:39.453Z,36.53
2023-04-29T10:04:08.561Z,35.34
2023-04-29T10:06:35.775Z,35.28
2023-04-29T10:09:02.981Z,35.18
2023-04-29T10:11:31.508Z,34.75
2023-04-29T10:13:58.673Z,34.27
2023-04-29T10:16:33.097Z,33.61
2023-04-29T10:19:01.318Z,34.66
2023-04-29T10:21:32.228Z,36.00
2023-04-29T10:24:00.256Z,34.71
2023-04-29T10:26:28.832Z,35.61
2023-04-29T10:28:56.569Z,35.13
2023-04-29T10:31:25.834Z,34.60
2023-04-29T10:33:56.921Z,35.90
2023-04-29T10:36:24.410Z,37.35
2023-04-29T10:38:53.217Z,36.56
2023-04-29T10:41:21.203Z,36.90
2023-04-29T10:43:48.807Z,35.59
2023-04-29T10:46:28.845Z,35.51
2023-04-29T10:48:57.685Z,35.05
2023-04-29T10:51:28.905Z,33.08
2023-04-29T10:54:03.510Z,34.82
2023-04-29T10:56:37.974Z,32.86
2023-04-29T10:59:05.731Z,32.87
2023-04-29T11:01:52.146Z,34.04
2023-04-29T11:04:20.494Z,34.97
2023-04-29T11:06:48.497Z,32.48
2023-04-29T11:09:19.003Z,32.94
2023-04-29T11:11:54.026Z,33.66
2023-04-29T11:14:22.417Z,32.03
2023-04-29T11:17:12.892Z,32.33
2023-04-29T11:19:46.950Z,34.07
2023-04-29T11:22:24.092Z,33.10
2023-04-29T11:24:56.191Z,31.73
2023-04-29T11:27:27.819Z,31.76
2023-04-29T11:29:58.831Z,31.25
2023-04-29T11:32:52.980Z,33.06
2023-04-29T11:35:20.447Z,34.86
2023-04-29T11:37:47.892Z,33.89
2023-04-29T11:40:15.244Z,32.31
2023-04-29T11:42:44.098Z,33.91
2023-04-29T11:45:12.608Z,31.69
2023-04-29T11:47:43.016Z,32.07
2023-04-29T11:50:10.523Z,33.66
2023-04-29T11:52:38.980Z,36.09
2023-04-29T11:55:06.614Z,34.11
2023-04-29T11:57:33.808Z,35.66
2023-04-29T12:00:01.300Z,34.84
2023-04-29T12:02:32.049Z,34.92
2023-04-29T12:05:03.393Z,34.45
2023-04-29T12:07:31.131Z,34.86
2023-04-29T12:09:58.339Z,33.86
2023-04-29T12:12:27.582Z,33.83
2023-04-29T12:14:54.970Z,33.99
2023-04-29T12:17:22.374Z,33.93
2023-04-29T12:19:49.955Z,34.73
2023-04-29T12:22:17.171Z,32.97
2023-04-29T12:24:44.419Z,31.69
2023-04-29T12:27:11.831Z,32.46
2023-04-29T12:29:40.603Z,31.66
2023-04-29T12:32:08.558Z,32.06
2023-04-29T12:34:36.088Z,31.64
2023-04-29T12:37:03.564Z,33.37
2023-04-29T12:39:30.847Z,32.31
2023-04-29T12:41:58.572Z,32.17
2023-04-29T12:44:25.897Z,32.39
2023-04-29T12:46:58.457Z,32.56
2023-04-29T12:49:26.121Z,32.18
2023-04-29T12:51:53.283Z,32.18
2023-04-29T12:54:20.651Z,32.30
2023-04-29T12:56:49.917Z,31.95
2023-04-29T12:59:17.245Z,31.43
2023-04-29T13:01:44.455Z,31.34
2023-04-29T13:04:12.563Z,30.52
2023-04-29T13:06:41.859Z,32.15
2023-04-29T13:09:17.927Z,34.43
2023-04-29T13:11:46.522Z,35.08
2023-04-29T13:14:13.660Z,33.74
2023-04-29T13:16:41.185Z,33.96
2023-04-29T13:19:24.719Z,33.86
2023-04-29T13:21:55.913Z,33.32
2023-04-29T13:24:23.907Z,33.46
2023-04-29T13:26:52.591Z,32.54
2023-04-29T13:29:20.043Z,34.47
2023-04-29T13:31:47.604Z,32.92
2023-04-29T13:34:14.868Z,32.01
2023-04-29T13:36:42.110Z,31.77
2023-04-29T13:39:10.505Z,32.52
2023-04-29T13:41:37.694Z,32.42
2023-04-29T13:44:07.560Z,33.11
2023-04-29T13:46:47.597Z,32.75
2023-04-29T13:59:40.095Z,31.10
2023-04-29T14:04:33.505Z,30.10
2023-04-29T14:07:00.835Z,31.07
2023-04-29T14:09:28.032Z,31.79
2023-04-29T14:11:55.488Z,32.24
2023-04-29T14:14:22.635Z,31.65
2023-04-29T14:16:49.892Z,32.79
2023-04-29T14:19:17.362Z,32.74
2023-04-29T14:21:44.546Z,31.79
2023-04-29T14:24:11.705Z,31.75
2023-04-29T14:26:39.119Z,31.82
2023-04-29T14:29:06.314Z,32.04
2023-04-29T14:31:38.100Z,32.88
2023-04-29T14:34:05.738Z,32.86
2023-04-29T14:36:32.900Z,32.92
2023-04-29T14:39:00.809Z,32.77
2023-04-29T14:41:28.235Z,32.57
2023-04-29T14:43:55.421Z,32.55
2023-04-29T14:46:23.546Z,32.58
2023-04-29T14:48:50.966Z,33.34
2023-04-29T14:51:18.083Z,32.71
2023-04-29T14:53:45.238Z,32.54
2023-04-29T14:56:12.745Z,33.05
2023-04-29T14:58:40.598Z,34.19
2023-04-29T15:01:08.109Z,33.71
2023-04-29T15:03:43.581Z,33.61
2023-04-29T15:06:12.244Z,33.52
2023-04-29T15:08:39.969Z,34.02
2023-04-29T15:11:07.198Z,33.59
2023-04-29T15:13:34.423Z,33.89
2023-04-29T15:16:01.898Z,33.51
2023-04-29T15:18:29.082Z,31.82
2023-04-29T15:20:56.219Z,32.01
2023-04-29T15:23:23.681Z,32.75
2023-04-29T15:25:51.028Z,32.25
2023-04-29T15:28:18.178Z,32.03
2023-04-29T15:30:45.662Z,32.79
2023-04-29T15:33:12.827Z,32.90
2023-04-29T15:35:40.129Z,32.51
2023-04-29T15:38:07.854Z,32.70
2023-04-29T15:40:35.032Z,33.58
2023-04-29T15:43:02.165Z,33.41
2023-04-29T15:45:29.582Z,32.39
2023-04-29T15:47:56.870Z,33.66
2023-04-29T15:50:24.008Z,33.32
2023-04-29T15:52:55.812Z,33.14
2023-04-29T15:55:23.370Z,33.81
2023-04-29T15:57:51.476Z,33.44
2023-04-29T16:00:19.167Z,33.41
2023-04-29T16:02:46.653Z,33.86
2023-04-29T16:05:13.871Z,33.49
2023-04-29T16:07:40.996Z,33.72
2023-04-29T16:10:09.488Z,33.42
2023-04-29T16:12:37.127Z,33.90
2023-04-29T16:15:05.016Z,34.57
2023-04-29T16:17:32.611Z,35.17
2023-04-29T16:19:59.877Z,35.52
2023-04-29T16:22:28.022Z,35.16
2023-04-29T16:24:55.538Z,35.67
2023-04-29T16:27:22.697Z,36.41
2023-04-29T16:29:49.902Z,35.20
2023-04-29T16:32:17.289Z,34.88
2023-04-29T16:34:44.433Z,35.29
2023-04-29T16:37:12.674Z,35.13
2023-04-29T16:39:40.711Z,35.21
2023-04-29T16:42:07.880Z,35.81
2023-04-29T16:44:35.078Z,36.37
2023-04-29T16:47:03.123Z,36.29
2023-04-29T16:49:30.527Z,35.80
2023-04-29T16:51:58.014Z,35.29
2023-04-29T16:54:26.333Z,36.14
2023-04-29T16:56:53.726Z,36.29
2023-04-29T16:59:20.913Z,36.15
2023-04-29T17:01:48.400Z,36.15
2023-04-29T17:04:15.885Z,36.91
2023-04-29T17:06:43.464Z,36.26
2023-04-29T17:09:11.359Z,36.14
2023-04-29T17:11:38.501Z,36.53
2023-04-29T17:14:05.711Z,36.90
2023-04-29T17:16:33.268Z,37.28
2023-04-29T17:19:00.433Z,37.26
2023-04-29T17:21:30.636Z,37.85
2023-04-29T17:23:59.038Z,38.42
2023-04-29T17:26:26.595Z,38.43
2023-04-29T17:28:53.936Z,38.31
2023-04-29T17:31:25.547Z,38.40
2023-04-29T17:34:05.345Z,38.44
2023-04-29T17:36:33.371Z,38.50
2023-04-29T17:39:00.915Z,38.43
2023-04-29T17:41:28.558Z,39.08
2023-04-29T17:43:56.224Z,39.94
2023-04-29T17:46:23.962Z,40.67
2023-04-29T17:48:51.604Z,40.89
2023-04-29T17:51:19.141Z,41.49
2023-04-29T17:53:46.431Z,41.49
2023-04-29T17:56:13.955Z,42.06
2023-04-29T17:58:42.428Z,42.98
2023-04-29T18:01:12.035Z,42.77
2023-04-29T18:03:39.826Z,42.38
2023-04-29T18:06:07.485Z,41.95
2023-04-29T18:10:02.522Z,42.78
2023-04-29T18:12:30.151Z,42.78
2023-04-29T18:14:57.356Z,43.48
2023-04-29T18:17:24.643Z,43.27
2023-04-29T18:19:52.342Z,44.20
2023-04-29T18:22:19.718Z,44.08
2023-04-29T18:24:48.817Z,44.20
2023-04-29T18:27:16.475Z,44.66
2023-04-29T18:29:44.728Z,44.76
2023-04-29T18:32:12.073Z,45.21
2023-04-29T18:34:39.734Z,45.20
2023-04-29T18:37:07.386Z,45.00
2023-04-29T18:39:34.822Z,45.36
2023-04-29T18:42:04.168Z,44.94
2023-04-29T18:44:31.755Z,45.64
2023-04-29T18:46:59.092Z,45.72
2023-04-29T18:49:26.567Z,47.59
2023-04-29T18:51:53.717Z,49.25
2023-04-29T18:54:21.113Z,50.59
2023-04-29T18:56:50.021Z,51.00
2023-04-29T18:59:21.131Z,51.47
2023-04-29T19:01:49.155Z,51.34
2023-04-29T19:04:17.403Z,50.76
2023-04-29T19:06:45.015Z,51.02
2023-04-29T19:09:13.685Z,50.72
2023-04-29T19:11:41.718Z,50.90
2023-04-29T19:14:09.019Z,51.52
2023-04-29T19:16:37.320Z,51.70
2023-04-29T19:19:05.804Z,52.79
2023-04-29T19:21:34.059Z,53.08
2023-04-29T19:24:01.814Z,54.20
2023-04-29T19:26:31.683Z,52.73
2023-04-29T19:29:03.911Z,53.32
2023-04-29T19:31:31.850Z,54.18
2023-04-29T19:34:00.037Z,54.62
2023-04-29T19:36:27.388Z,55.66
2023-04-29T19:38:55.657Z,54.38
2023-04-29T19:41:24.118Z,54.87
2023-04-29T19:43:51.854Z,56.86
2023-04-29T19:46:19.641Z,58.17
2023-04-29T19:48:47.263Z,58.08
2023-04-29T19:51:15.596Z,56.63
2023-04-29T19:53:43.281Z,54.93
2023-04-29T19:56:10.707Z,55.44
2023-04-29T19:58:38.302Z,54.29
2023-04-29T20:01:06.230Z,55.17
2023-04-29T20:03:38.420Z,54.10
2023-04-29T20:06:05.808Z,53.45
2023-04-29T20:08:33.856Z,54.19
2023-04-29T20:11:02.612Z,53.99
2023-04-29T20:13:29.961Z,54.04
2023-04-29T20:15:57.190Z,55.70
2023-04-29T20:18:24.792Z,56.80
2023-04-29T20:20:52.071Z,57.59
2023-04-29T20:23:19.804Z,56.54
2023-04-29T20:25:47.558Z,58.87
2023-04-29T20:28:14.770Z,62.67
2023-04-29T20:30:41.918Z,63.25
2023-04-29T20:33:09.568Z,62.11
2023-04-29T20:35:36.790Z,62.04
2023-04-29T20:38:03.968Z,61.98
2023-04-29T20:40:32.644Z,60.50
2023-04-29T20:43:00.302Z,58.51
2023-04-29T20:45:27.596Z,57.88
2023-04-29T20:47:55.032Z,58.10
2023-04-29T20:50:22.734Z,58.32
2023-04-29T20:52:50.334Z,57.38
2023-04-29T20:55:18.822Z,55.80
2023-04-29T20:57:46.035Z,54.48
2023-04-29T21:00:14.245Z,54.02
2023-04-29T21:02:41.713Z,54.32
2023-04-29T21:05:10.209Z,54.51
2023-04-29T21:07:37.587Z,56.13
2023-04-29T21:10:05.195Z,55.89
2023-04-29T21:12:32.452Z,57.77
2023-04-29T21:14:59.622Z,59.68
2023-04-29T21:17:27.053Z,61.44
2023-04-29T21:19:54.500Z,62.88
2023-04-29T21:22:21.771Z,62.95
2023-04-29T21:24:49.198Z,63.72
2023-04-29T21:27:17.200Z,64.67
2023-04-29T21:29:44.382Z,64.55
2023-04-29T21:32:11.775Z,64.84
2023-04-29T21:34:39.005Z,64.07
2023-04-29T21:37:06.265Z,62.39
2023-04-29T21:39:33.778Z,62.01
2023-04-29T21:42:03.004Z,62.71
2023-04-29T21:44:30.516Z,63.71
2023-04-29T21:46:59.843Z,62.62
2023-04-29T21:49:27.793Z,63.99
2023-04-29T21:51:55.158Z,65.27
2023-04-29T21:54:22.707Z,66.49
2023-04-29T21:56:49.864Z,65.96
2023-04-29T21:59:17.158Z,65.10
2023-04-29T22:01:59.821Z,64.82
2023-04-29T22:04:30.185Z,62.77
2023-04-29T22:06:57.609Z,62.67
2023-04-29T22:09:24.765Z,61.32
2023-04-29T22:11:52.499Z,60.57
2023-04-29T22:14:19.664Z,59.50
2023-04-29T22:16:46.844Z,58.62
2023-04-29T22:19:14.311Z,62.10
2023-04-29T22:21:42.978Z,62.76
2023-04-29T22:24:10.265Z,62.79
2023-04-29T22:26:38.086Z,62.60
2023-04-29T22:29:05.288Z,64.75
2023-04-29T22:31:32.489Z,63.15
2023-04-29T22:34:00.000Z,64.44
2023-04-29T22:36:27.348Z,61.42
2023-04-29T22:38:54.471Z,59.08
2023-04-29T22:41:21.948Z,61.99
2023-04-29T22:43:49.112Z,61.39
2023-04-29T22:46:16.291Z,62.18
2023-04-29T22:48:43.831Z,61.41
2023-04-29T22:51:14.726Z,62.67
2023-04-29T22:53:43.446Z,63.66
2023-04-29T22:56:11.875Z,63.28
2023-04-29T22:58:39.587Z,63.56
2023-04-29T23:01:06.774Z,61.37
2023-04-29T23:03:34.316Z,62.97
2023-04-29T23:06:02.542Z,62.91
2023-04-29T23:08:29.923Z,66.16
2023-04-29T23:10:57.388Z,62.90
2023-04-29T23:13:24.524Z,62.42
2023-04-29T23:15:52.319Z,63.22
2023-04-29T23:18:19.827Z,66.49
2023-04-29T23:20:47.780Z,66.01
2023-04-29T23:23:14.957Z,65.62
2023-04-29T23:25:42.584Z,64.96
2023-04-29T23:28:09.765Z,66.93
2023-04-29T23:30:36.917Z,65.30
2023-04-29T23:33:04.379Z,62.55
2023-04-29T23:35:31.786Z,64.84
2023-04-29T23:37:59.146Z,65.36
2023-04-29T23:40:26.610Z,66.05
2023-04-29T23:42:53.886Z,64.22
2023-04-29T23:45:21.035Z,63.79
2023-04-29T23:47:48.534Z,64.65
2023-04-29T23:50:15.979Z,65.14
2023-04-29T23:52:43.148Z,64.89
2023-04-29T23:55:10.553Z,66.01
2023-04-29T23:57:37.749Z,66.28
